Time;durP1;ratioP1;P1;durP2;ratioP2;P2;SDS_P1;SDS_P2;PMS_P1;PMS_P2;Temp;Humidity;BMP_temperature;BMP_pressure;BME280_temperature;BME280_humidity;BME280_pressure;Samples;Min_cycle;Max_cycle;Signal;HPM_P1;HPM_P2
2022/09/10 00:01:22;;;;;;;4.95;2.00;;;;;;;15.99;83.70;100445.56;5050881;28;20528;-63
2022/09/10 00:03:49;;;;;;;5.88;2.00;;;;;;;16.00;84.70;100449.06;5083722;28;20516;-64
2022/09/10 00:06:17;;;;;;;5.28;2.03;;;;;;;15.92;84.10;100442.56;5068175;28;20060;-63
2022/09/10 00:08:45;;;;;;;5.22;1.98;;;;;;;15.94;83.27;100448.59;5077403;28;20051;-63
2022/09/10 00:11:16;;;;;;;3.35;1.30;;;;;;;15.93;84.23;100438.94;5084129;28;20503;-64
2022/09/10 00:13:43;;;;;;;4.97;1.42;;;;;;;15.95;83.77;100446.78;5080202;28;20070;-62
2022/09/10 00:16:13;;;;;;;2.50;1.40;;;;;;;15.92;85.08;100444.38;5087107;28;20532;-62
2022/09/10 00:18:42;;;;;;;5.60;2.28;;;;;;;15.89;84.97;100449.94;5079829;28;20044;-63
2022/09/10 00:21:11;;;;;;;5.03;1.65;;;;;;;15.89;84.00;100447.28;5059094;28;20037;-63
2022/09/10 00:23:38;;;;;;;5.18;1.50;;;;;;;15.86;84.00;100447.56;5072126;28;20044;-63
2022/09/10 00:26:21;;;;;;;2.85;1.30;;;;;;;15.84;85.00;100439.72;5083049;28;20139;-64
2022/09/10 00:28:49;;;;;;;2.00;1.00;;;;;;;15.83;83.69;100435.38;5063607;28;20052;-64
2022/09/10 00:31:17;;;;;;;3.35;1.40;;;;;;;15.81;84.24;100439.16;5084496;28;20082;-64
2022/09/10 00:33:44;;;;;;;2.75;1.13;;;;;;;15.78;85.64;100436.75;5084908;28;20408;-60
2022/09/10 00:36:26;;;;;;;5.03;1.45;;;;;;;15.74;85.78;100443.28;5087770;28;20040;-64
2022/09/10 00:38:56;;;;;;;5.30;1.30;;;;;;;15.74;86.07;100440.63;5086175;28;20511;-63
2022/09/10 00:41:24;;;;;;;5.10;1.65;;;;;;;15.74;85.83;100440.63;5070975;28;20063;-63
2022/09/10 00:44:03;;;;;;;5.82;1.85;;;;;;;15.67;86.61;100437.66;5073014;28;20043;-62
2022/09/10 00:46:55;;;;;;;5.03;1.60;;;;;;;15.72;85.92;100437.25;5073414;28;20044;-61
2022/09/10 00:49:31;;;;;;;7.85;1.80;;;;;;;15.73;86.46;100436.28;5085730;28;20155;-64
2022/09/10 00:51:59;;;;;;;2.95;1.50;;;;;;;15.75;86.37;100426.38;5086271;28;20099;-63
2022/09/10 00:54:28;;;;;;;7.65;1.85;;;;;;;15.70;86.05;100427.59;5086754;28;20040;-63
2022/09/10 00:56:58;;;;;;;3.83;1.65;;;;;;;15.67;85.23;100432.34;5049828;28;20437;-62
2022/09/10 00:59:26;;;;;;;4.10;2.17;;;;;;;15.65;85.81;100421.84;5059124;28;20048;-63
2022/09/10 01:01:54;;;;;;;4.25;1.30;;;;;;;15.65;86.93;100428.97;5072651;28;20056;-63
2022/09/10 01:04:21;;;;;;;3.95;1.80;;;;;;;15.62;86.28;100429.16;5066143;28;20056;-63
2022/09/10 01:06:50;;;;;;;4.70;1.58;;;;;;;15.64;86.33;100428.13;5077553;28;20047;-63
2022/09/10 01:09:19;;;;;;;6.82;2.25;;;;;;;15.65;86.41;100435.09;5088910;28;20060;-63
2022/09/10 01:12:29;;;;;;;4.40;1.95;;;;;;;15.63;85.36;100434.38;5069422;28;20062;-64
2022/09/10 01:15:23;;;;;;;4.10;2.00;;;;;;;15.60;86.48;100431.13;5080158;28;20445;-61
2022/09/10 01:18:32;;;;;;;2.90;1.55;;;;;;;15.57;87.12;100431.38;5068683;28;20052;-62
2022/09/10 01:21:13;;;;;;;4.22;1.48;;;;;;;15.51;87.43;100432.72;5007020;28;20074;-63
2022/09/10 01:23:52;;;;;;;4.95;1.67;;;;;;;15.52;87.53;100430.91;5068965;28;20428;-65
2022/09/10 01:26:31;;;;;;;3.97;1.80;;;;;;;15.51;87.94;100427.41;5083496;28;20389;-62
2022/09/10 01:29:08;;;;;;;2.78;1.55;;;;;;;15.50;87.97;100424.91;5084356;28;20055;-62
2022/09/10 01:31:35;;;;;;;5.10;1.40;;;;;;;15.50;87.77;100432.84;5087653;28;20063;-63
2022/09/10 01:34:06;;;;;;;6.50;1.50;;;;;;;15.51;87.80;100439.84;5060510;28;20083;-63
2022/09/10 01:36:37;;;;;;;3.67;1.80;;;;;;;15.49;86.91;100437.31;5056745;28;20066;-64
2022/09/10 01:39:05;;;;;;;4.00;1.90;;;;;;;15.46;86.85;100440.22;5068663;28;20036;-64
2022/09/10 01:41:32;;;;;;;2.92;1.52;;;;;;;15.47;87.43;100433.94;5079026;28;20080;-61
2022/09/10 01:44:11;;;;;;;3.50;1.70;;;;;;;15.45;87.84;100434.06;5083671;28;20056;-63
2022/09/10 01:46:49;;;;;;;4.25;1.65;;;;;;;15.42;87.39;100426.38;5083808;28;20048;-63
2022/09/10 01:49:28;;;;;;;4.55;1.70;;;;;;;15.38;87.56;100432.03;5048812;28;20048;-62
2022/09/10 01:52:11;;;;;;;2.65;1.60;;;;;;;15.38;88.09;100432.88;5064375;28;20055;-62
2022/09/10 01:54:55;;;;;;;3.08;1.70;;;;;;;15.36;87.85;100434.84;5083634;28;20051;-63
2022/09/10 01:57:57;;;;;;;6.32;2.72;;;;;;;15.28;88.84;100434.63;5059029;28;20492;-63
2022/09/10 02:00:25;;;;;;;7.03;1.95;;;;;;;15.22;88.36;100436.91;5080266;28;20048;-64
2022/09/10 02:02:56;;;;;;;8.63;2.05;;;;;;;15.17;88.97;100429.31;5047874;28;20509;-63
2022/09/10 02:05:25;;;;;;;4.15;1.70;;;;;;;15.20;88.83;100432.56;5067426;28;20520;-64
2022/09/10 02:07:56;;;;;;;4.47;1.50;;;;;;;15.23;88.59;100430.66;5065856;28;20052;-65
2022/09/10 02:10:23;;;;;;;3.83;1.55;;;;;;;15.24;88.63;100429.69;5063623;28;20436;-62
2022/09/10 02:12:50;;;;;;;4.65;2.10;;;;;;;15.22;88.03;100432.47;5085366;28;20040;-61
2022/09/10 02:15:18;;;;;;;4.90;1.67;;;;;;;15.17;87.76;100435.50;5083904;28;20055;-64
2022/09/10 02:17:45;;;;;;;6.43;1.83;;;;;;;15.16;87.87;100439.09;5062606;28;20051;-62
2022/09/10 02:20:13;;;;;;;6.65;2.45;;;;;;;15.08;90.09;100433.56;5065830;28;20044;-64
2022/09/10 02:22:49;;;;;;;7.47;3.28;;;;;;;14.96;92.09;100444.34;5082322;28;20052;-62
2022/09/10 02:25:17;;;;;;;7.22;2.50;;;;;;;14.86;91.27;100437.13;5069711;28;20052;-63
2022/09/10 02:27:44;;;;;;;5.95;2.33;;;;;;;14.87;90.67;100443.25;5086714;28;20063;-63
2022/09/10 02:30:11;;;;;;;8.55;2.85;;;;;;;14.93;89.67;100435.66;5088486;28;20501;-65
2022/09/10 02:32:38;;;;;;;6.53;2.20;;;;;;;14.99;89.36;100436.94;5084576;28;20456;-62
2022/09/10 02:35:06;;;;;;;7.32;3.13;;;;;;;15.03;89.37;100441.03;5084816;28;20052;-63
2022/09/10 02:37:33;;;;;;;7.25;3.20;;;;;;;15.06;88.14;100447.94;5071909;28;20044;-61
2022/09/10 02:40:01;;;;;;;8.15;3.13;;;;;;;15.07;88.73;100447.78;5082613;28;20055;-62
2022/09/10 02:42:28;;;;;;;6.05;2.72;;;;;;;15.02;88.81;100447.31;5062759;28;20059;-63
2022/09/10 02:44:55;;;;;;;6.07;2.60;;;;;;;15.02;88.34;100451.78;5048102;28;20059;-63
2022/09/10 02:47:22;;;;;;;4.93;2.50;;;;;;;14.98;88.89;100445.03;5083957;28;20063;-64
2022/09/10 02:49:49;;;;;;;9.00;3.15;;;;;;;14.97;87.89;100446.00;5084927;28;20060;-62
2022/09/10 02:52:16;;;;;;;5.53;2.47;;;;;;;14.93;87.99;100448.91;5082433;28;20075;-63
2022/09/10 02:54:43;;;;;;;6.15;2.50;;;;;;;14.93;88.32;100448.91;5078902;28;20063;-62
2022/09/10 02:57:11;;;;;;;5.60;2.80;;;;;;;14.95;87.73;100448.81;5084706;28;20048;-61
2022/09/10 02:59:38;;;;;;;8.38;3.05;;;;;;;14.96;nan;100450.47;5082597;28;20044;-64
2022/09/10 03:02:05;;;;;;;8.60;2.72;;;;;;;14.97;87.90;100449.50;5067400;28;20056;-64
2022/09/10 03:04:32;;;;;;;5.18;2.03;;;;;;;14.95;87.91;100451.44;5062801;28;20052;-63
2022/09/10 03:07:00;;;;;;;6.03;2.05;;;;;;;14.96;87.85;100452.28;5084599;28;20051;-64
2022/09/10 03:09:27;;;;;;;4.25;2.35;;;;;;;14.96;87.67;100452.28;5078445;28;20074;-60
2022/09/10 03:11:54;;;;;;;6.43;2.28;;;;;;;14.96;88.85;100441.69;5054193;28;20097;-64
2022/09/10 03:14:23;;;;;;;6.13;1.90;;;;;;;14.86;88.59;100442.41;5047095;28;20063;-64
2022/09/10 03:16:51;;;;;;;7.30;2.30;;;;;;;14.83;89.04;100439.16;5081151;28;20048;-65
2022/09/10 03:19:20;;;;;;;6.15;2.10;;;;;;;14.85;89.76;100438.06;5081889;28;20056;-63
2022/09/10 03:21:47;;;;;;;3.80;1.70;;;;;;;14.83;88.88;100440.00;5083001;28;20051;-63
2022/09/10 03:24:14;;;;;;;5.32;1.90;;;;;;;14.82;88.99;100445.44;5084303;28;20066;-64
2022/09/10 03:26:43;;;;;;;5.68;2.33;;;;;;;14.77;89.73;100437.84;5085218;28;20056;-63
2022/09/10 03:29:10;;;;;;;4.05;1.80;;;;;;;14.73;89.90;100441.72;5062531;28;20055;-63
2022/09/10 03:31:38;;;;;;;4.13;2.30;;;;;;;14.75;89.90;100444.22;5081803;28;20059;-63
2022/09/10 03:34:05;;;;;;;7.50;2.60;;;;;;;14.73;90.53;100443.53;5075628;28;20074;-62
2022/09/10 03:36:32;;;;;;;3.60;1.90;;;;;;;14.62;90.92;100439.88;5065187;22;20056;-66
2022/09/10 03:38:59;;;;;;;5.13;2.10;;;;;;;14.61;92.13;100435.56;5057261;28;20053;-66
2022/09/10 03:41:27;;;;;;;3.22;2.13;;;;;;;14.57;91.66;100442.06;5065409;28;20048;-66
2022/09/10 03:43:56;;;;;;;4.20;2.25;;;;;;;14.62;92.05;100439.88;5057735;28;20058;-66
2022/09/10 03:46:23;;;;;;;5.65;2.08;;;;;;;14.62;91.56;100433.75;5052782;28;20137;-66
2022/09/10 03:48:51;;;;;;;4.60;1.80;;;;;;;14.59;91.55;100429.56;5044236;28;20061;-66
2022/09/10 03:51:22;;;;;;;3.72;2.13;;;;;;;14.44;92.49;100436.84;5039760;28;20045;-66
2022/09/10 03:53:49;;;;;;;5.38;2.03;;;;;;;14.36;93.67;100426.03;5051143;28;20051;-67
2022/09/10 03:56:18;;;;;;;9.52;2.25;;;;;;;14.31;94.36;100430.81;5048923;28;20223;-66
2022/09/10 03:58:47;;;;;;;4.45;2.15;;;;;;;14.23;95.58;100432.38;5042504;28;20513;-67
2022/09/10 04:01:15;;;;;;;4.95;2.10;;;;;;;14.17;95.50;100431.88;5051460;28;20051;-66
2022/09/10 04:03:43;;;;;;;6.32;1.85;;;;;;;14.14;94.67;100433.94;5048980;28;20136;-66
2022/09/10 04:06:11;;;;;;;4.22;1.77;;;;;;;14.20;94.43;100433.47;5046783;28;20056;-66
2022/09/10 04:08:39;;;;;;;6.43;2.10;;;;;;;14.29;94.14;100434.56;5056141;28;20140;-68
2022/09/10 04:11:06;;;;;;;3.08;1.85;;;;;;;14.28;94.02;100433.72;5033327;28;20053;-66
2022/09/10 04:13:33;;;;;;;6.15;2.70;;;;;;;14.22;95.55;100428.88;5046637;28;20050;-67
2022/09/10 04:16:01;;;;;;;5.85;1.75;;;;;;;14.21;94.32;100429.84;5057908;28;20489;-67
2022/09/10 04:18:28;;;;;;;5.00;1.92;;;;;;;14.22;94.39;100431.53;5046108;28;20433;-66
2022/09/10 04:20:56;;;;;;;8.23;2.17;;;;;;;14.22;94.38;100436.81;5028648;28;20061;-67
2022/09/10 04:23:23;;;;;;;5.75;2.42;;;;;;;14.18;94.71;100438.00;5052811;28;20052;-66
2022/09/10 04:25:51;;;;;;;6.32;2.05;;;;;;;14.21;93.81;100442.25;5047408;28;20071;-66
2022/09/10 04:28:18;;;;;;;5.13;2.25;;;;;;;14.24;93.23;100444.66;5044676;28;20056;-67
2022/09/10 04:30:45;;;;;;;5.05;1.77;;;;;;;14.23;92.46;100437.66;5034256;28;20053;-66
2022/09/10 04:33:13;;;;;;;3.33;2.17;;;;;;;14.27;92.40;100444.41;5056545;28;20068;-66
2022/09/10 04:35:41;;;;;;;5.05;1.92;;;;;;;14.30;92.62;100441.53;5054943;28;20060;-66
2022/09/10 04:38:08;;;;;;;4.72;1.92;;;;;;;14.30;92.73;100444.19;5044021;28;20379;-66
2022/09/10 04:40:36;;;;;;;3.97;1.83;;;;;;;14.29;91.85;100448.63;5046752;28;20052;-66
2022/09/10 04:43:03;;;;;;;5.80;1.80;;;;;;;14.29;91.70;100440.69;5049480;28;20099;-66
2022/09/10 04:45:33;;;;;;;4.70;1.80;;;;;;;14.29;91.74;100443.34;5045549;28;20049;-66
2022/09/10 04:48:00;;;;;;;5.80;1.75;;;;;;;14.32;91.97;100440.47;5045770;28;20049;-66
2022/09/10 04:50:33;;;;;;;3.10;1.60;;;;;;;14.32;91.46;100439.59;5042034;28;20064;-65
2022/09/10 04:53:00;;;;;;;4.53;1.83;;;;;;;14.32;92.09;100436.94;5045316;28;20481;-66
2022/09/10 04:55:29;;;;;;;6.43;2.10;;;;;;;14.25;91.91;100436.59;5049533;28;20060;-65
2022/09/10 04:57:56;;;;;;;7.30;1.63;;;;;;;14.23;91.86;100438.53;5029692;28;20071;-66
2022/09/10 05:00:25;;;;;;;6.03;1.98;;;;;;;14.25;91.63;100446.34;5045156;28;20064;-65
2022/09/10 05:02:52;;;;;;;6.20;2.10;;;;;;;14.16;93.70;100439.94;5047071;28;20120;-65
2022/09/10 05:05:19;;;;;;;3.65;1.70;;;;;;;14.13;93.06;100440.19;5050415;28;20583;-66
2022/09/10 05:07:47;;;;;;;2.97;1.73;;;;;;;14.13;93.29;100433.06;5046313;28;20056;-66
2022/09/10 05:10:14;;;;;;;4.35;2.20;;;;;;;14.16;92.94;100447.88;5052126;28;20044;-66
2022/09/10 05:12:41;;;;;;;4.40;2.42;;;;;;;14.05;95.35;100445.22;5031509;28;20061;-66
2022/09/10 05:15:08;;;;;;;7.85;1.65;;;;;;;13.94;94.47;100449.53;5044453;28;20462;-66
2022/09/10 05:17:36;;;;;;;8.63;2.35;;;;;;;14.01;94.35;100447.25;5025643;28;20061;-66
2022/09/10 05:20:05;;;;;;;6.18;1.83;;;;;;;14.01;94.18;100444.63;5048152;28;20052;-66
2022/09/10 05:22:34;;;;;;;4.75;2.50;;;;;;;14.06;94.49;100445.09;5042352;28;20041;-66
2022/09/10 05:25:06;;;;;;;8.73;2.35;;;;;;;14.12;93.47;100457.03;5046633;28;20064;-66
2022/09/10 05:27:34;;;;;;;5.30;1.98;;;;;;;14.16;92.95;100450.53;5032713;28;20045;-66
2022/09/10 05:30:01;;;;;;;5.10;2.08;;;;;;;14.12;94.17;100449.94;5041932;28;20057;-66
2022/09/10 05:32:28;;;;;;;6.07;1.67;;;;;;;14.12;93.86;100451.72;5049116;28;20041;-66
2022/09/10 05:34:55;;;;;;;5.18;1.70;;;;;;;14.16;92.43;100448.72;5048297;28;20046;-66
2022/09/10 05:37:22;;;;;;;3.20;1.73;;;;;;;14.20;93.64;100452.00;5045714;28;20053;-66
2022/09/10 05:39:49;;;;;;;4.88;1.90;;;;;;;14.23;93.42;100458.84;5048091;28;20059;-66
2022/09/10 05:42:17;;;;;;;4.45;1.80;;;;;;;14.20;93.91;100449.34;5050690;28;20436;-66
2022/09/10 05:44:44;;;;;;;10.82;2.60;;;;;;;14.15;94.34;100452.34;5045055;28;20213;-66
2022/09/10 05:47:11;;;;;;;5.88;3.47;;;;;;;14.14;94.27;100448.03;5047604;28;20663;-66
2022/09/10 05:49:38;;;;;;;6.72;2.05;;;;;;;14.18;93.79;100445.97;5049163;28;20056;-66
2022/09/10 05:52:05;;;;;;;5.10;1.90;;;;;;;14.22;93.75;100452.72;5048442;28;20051;-66
2022/09/10 05:54:33;;;;;;;10.65;2.42;;;;;;;14.24;95.31;100452.59;5024627;28;20057;-65
2022/09/10 05:57:00;;;;;;;5.07;2.10;;;;;;;14.10;97.06;100457.16;5050775;28;20396;-66
2022/09/10 05:59:28;;;;;;;3.80;2.00;;;;;;;14.07;97.34;100453.88;5045105;28;20049;-65
2022/09/10 06:01:56;;;;;;;7.57;1.90;;;;;;;14.08;97.49;100456.41;5054242;28;20425;-65
2022/09/10 06:04:24;;;;;;;3.50;1.77;;;;;;;14.11;96.55;100453.53;5046084;28;20052;-67
2022/09/10 06:06:51;;;;;;;4.97;2.20;;;;;;;14.17;96.93;100454.88;5045610;28;20539;-66
2022/09/10 06:09:18;;;;;;;5.15;1.90;;;;;;;14.17;96.82;100457.50;5044873;28;20055;-64
2022/09/10 06:11:48;;;;;;;4.20;2.33;;;;;;;14.17;97.15;100461.00;5047707;28;20047;-64
2022/09/10 06:14:16;;;;;;;7.43;1.85;;;;;;;14.18;96.45;100457.41;5043112;28;20053;-64
2022/09/10 06:16:43;;;;;;;3.72;1.80;;;;;;;14.26;95.38;100454.16;5048953;28;20064;-65
2022/09/10 06:19:10;;;;;;;6.68;2.25;;;;;;;14.35;95.45;100463.19;5045443;28;20060;-65
2022/09/10 06:21:38;;;;;;;4.50;1.52;;;;;;;14.35;95.20;100471.16;5042879;28;20053;-65
2022/09/10 06:24:06;;;;;;;8.20;2.10;;;;;;;14.45;94.33;100472.13;5048362;28;20056;-65
2022/09/10 06:26:33;;;;;;;3.67;1.90;;;;;;;14.48;93.87;100476.34;5046258;28;20535;-65
2022/09/10 06:29:00;;;;;;;3.90;2.20;;;;;;;14.48;94.59;100487.81;5041580;28;20049;-65
2022/09/10 06:31:27;;;;;;;3.97;1.98;;;;;;;14.49;94.82;100476.25;5050503;28;20055;-65
2022/09/10 06:33:54;;;;;;;4.05;1.88;;;;;;;14.50;95.72;100482.38;5047623;28;20441;-65
2022/09/10 06:36:21;;;;;;;4.63;2.00;;;;;;;14.50;95.95;100488.56;5046678;28;20064;-65
2022/09/10 06:38:49;;;;;;;4.93;1.63;;;;;;;14.57;95.10;100484.44;5047720;28;20041;-65
2022/09/10 06:41:16;;;;;;;7.47;2.70;;;;;;;14.65;94.52;100486.50;5048054;28;20053;-65
2022/09/10 06:43:43;;;;;;;3.72;1.58;;;;;;;14.72;93.62;100482.41;5040354;28;20045;-65
2022/09/10 06:46:14;;;;;;;4.13;1.80;;;;;;;14.80;94.01;100490.59;5041369;28;20080;-65
2022/09/10 06:49:03;;;;;;;4.85;1.67;;;;;;;14.86;92.87;100479.53;5046946;28;20068;-65
2022/09/10 06:51:30;;;;;;;5.60;1.83;;;;;;;14.97;92.18;100476.00;5050136;28;20056;-64
2022/09/10 06:53:57;;;;;;;3.88;1.85;;;;;;;15.01;92.20;100480.09;5045233;28;20061;-65
2022/09/10 06:56:24;;;;;;;6.10;2.70;;;;;;;15.05;91.89;100481.56;5058050;28;20074;-65
2022/09/10 06:58:51;;;;;;;4.97;1.88;;;;;;;15.12;91.64;100485.38;5045952;28;20159;-65
2022/09/10 07:01:20;;;;;;;7.38;2.30;;;;;;;15.16;91.47;100476.22;5055809;28;20062;-65
2022/09/10 07:03:47;;;;;;;5.60;2.00;;;;;;;15.18;91.43;100479.59;5046381;28;20064;-65
2022/09/10 07:06:16;;;;;;;2.90;1.58;;;;;;;15.22;91.37;100477.56;5012690;28;20057;-65
2022/09/10 07:08:43;;;;;;;5.45;1.60;;;;;;;15.29;91.37;100483.19;5045248;28;20417;-65
2022/09/10 07:11:12;;;;;;;7.43;1.65;;;;;;;15.37;91.25;100483.41;5050453;28;20055;-65
2022/09/10 07:13:40;;;;;;;8.13;1.83;;;;;;;15.43;90.24;100485.56;5042819;28;20147;-66
2022/09/10 07:16:07;;;;;;;5.28;1.75;;;;;;;15.47;90.25;100484.34;5050123;28;20036;-64
2022/09/10 07:18:34;;;;;;;3.45;1.65;;;;;;;15.51;90.47;100490.25;5048140;28;20053;-65
2022/09/10 07:21:10;;;;;;;5.88;1.88;;;;;;;15.60;89.93;100486.84;5049134;28;20061;-65
2022/09/10 07:23:40;;;;;;;7.60;1.52;;;;;;;15.65;89.24;100485.53;5048555;28;20040;-64
2022/09/10 07:26:10;;;;;;;5.68;1.55;;;;;;;15.73;89.18;100484.06;5044782;28;20056;-65
2022/09/10 07:28:37;;;;;;;5.43;1.20;;;;;;;15.79;88.94;100478.22;5045145;28;20079;-65
2022/09/10 07:31:20;;;;;;;3.97;1.48;;;;;;;15.87;88.58;100475.78;5051358;28;20053;-65
2022/09/10 07:33:48;;;;;;;8.48;2.35;;;;;;;15.92;87.88;100479.72;5044831;28;20548;-65
2022/09/10 07:36:16;;;;;;;4.03;1.42;;;;;;;16.00;87.80;100475.59;5049800;28;20063;-65
2022/09/10 07:38:44;;;;;;;5.65;1.75;;;;;;;16.07;87.77;100472.28;5034741;28;20044;-65
2022/09/10 07:41:12;;;;;;;6.00;1.60;;;;;;;16.13;86.87;100477.09;5044066;28;20144;-66
2022/09/10 07:43:42;;;;;;;4.03;1.42;;;;;;;16.20;86.75;100478.25;5034599;28;20053;-66
2022/09/10 07:46:18;;;;;;;6.00;1.83;;;;;;;16.27;86.03;100472.44;5047218;28;20050;-66
2022/09/10 07:48:47;;;;;;;;;;;;;;;16.33;85.83;100474.56;5020465;28;20574;-66
2022/09/10 07:51:17;;;;;;;6.40;1.65;;;;;;;16.40;84.50;100484.53;5041257;28;20155;-67
2022/09/10 07:53:45;;;;;;;4.40;2.15;;;;;;;16.46;84.44;100478.69;5045442;28;20034;-66
2022/09/10 07:56:17;;;;;;;7.35;1.60;;;;;;;16.59;83.09;100483.78;5056285;28;20405;-68
2022/09/10 07:58:44;;;;;;;6.05;1.73;;;;;;;16.68;82.21;100493.63;5040928;28;20049;-66
2022/09/10 08:01:11;;;;;;;4.50;1.38;;;;;;;16.71;82.08;100484.56;5051536;28;20033;-67
2022/09/10 08:03:39;;;;;;;11.57;1.73;;;;;;;16.75;82.31;100486.00;5045002;28;20053;-67
2022/09/10 08:06:07;;;;;;;8.48;1.65;;;;;;;16.85;82.43;100491.34;5040054;28;20056;-61
2022/09/10 08:08:37;;;;;;;2.45;1.20;;;;;;;16.92;82.18;100482.69;5043973;28;20538;-59
2022/09/10 08:11:06;;;;;;;3.30;1.15;;;;;;;17.01;81.18;100491.69;5048143;28;20049;-63
2022/09/10 08:13:40;;;;;;;4.82;1.30;;;;;;;17.09;81.35;100496.34;5038126;28;20076;-60
2022/09/10 08:16:09;;;;;;;4.38;1.40;;;;;;;17.14;80.88;100489.63;5034770;28;20045;-65
2022/09/10 08:18:36;;;;;;;3.35;1.80;;;;;;;17.19;79.95;100495.38;5035434;28;20655;-63
2022/09/10 08:21:04;;;;;;;5.35;1.83;;;;;;;17.20;79.18;100498.88;5041325;28;20055;-63
2022/09/10 08:23:31;;;;;;;5.18;1.45;;;;;;;17.28;79.57;100501.69;5045757;28;20045;-63
2022/09/10 08:26:00;;;;;;;5.55;1.48;;;;;;;17.33;78.99;100499.47;5039344;28;20045;-64
2022/09/10 08:28:27;;;;;;;5.57;1.77;;;;;;;17.39;79.06;100500.75;5040581;28;20423;-63
2022/09/10 08:31:02;;;;;;;4.47;1.30;;;;;;;17.48;79.13;100501.75;5044239;28;20052;-64
2022/09/10 08:33:30;;;;;;;3.92;1.25;;;;;;;17.55;78.39;100506.38;5038305;28;20049;-62
2022/09/10 08:35:58;;;;;;;4.35;1.35;;;;;;;17.62;77.95;100509.34;5043333;28;20064;-62
2022/09/10 08:38:29;;;;;;;2.53;1.48;;;;;;;17.74;77.44;100512.72;5042728;28;20057;-63
2022/09/10 08:40:58;;;;;;;5.53;1.30;;;;;;;17.72;76.97;100499.53;5044434;28;20067;-63
2022/09/10 08:43:37;;;;;;;4.78;1.48;;;;;;;17.73;77.09;100514.50;5023637;28;20045;-64
2022/09/10 08:46:13;;;;;;;3.17;1.50;;;;;;;17.79;77.82;100510.50;5029209;28;20444;-64
2022/09/10 08:48:43;;;;;;;4.78;1.65;;;;;;;17.88;77.79;100513.16;5040219;28;20049;-62
2022/09/10 08:51:17;;;;;;;4.68;1.80;;;;;;;17.92;76.63;100505.72;5048127;28;20053;-63
2022/09/10 08:53:54;;;;;;;3.65;1.20;;;;;;;18.01;77.09;100504.03;5026965;28;20124;-63
2022/09/10 08:56:22;;;;;;;5.15;1.40;;;;;;;18.10;77.43;100500.50;5040728;28;20061;-65
2022/09/10 08:58:53;;;;;;;4.20;1.20;;;;;;;18.23;75.17;100501.06;5046036;28;20052;-65
2022/09/10 09:01:31;;;;;;;3.50;1.17;;;;;;;18.23;75.85;100498.41;5030885;28;20057;-61
2022/09/10 09:03:58;;;;;;;5.35;1.33;;;;;;;18.31;75.38;100505.69;5044162;28;20049;-64
2022/09/10 09:06:40;;;;;;;4.20;1.15;;;;;;;18.38;74.47;100507.66;5030790;28;20041;-61
2022/09/10 09:09:08;;;;;;;6.03;1.02;;;;;;;18.41;73.83;100504.66;5046704;28;20469;-63
2022/09/10 09:11:53;;;;;;;4.40;1.57;;;;;;;18.45;73.95;100503.41;5026514;28;20056;-63
2022/09/10 09:14:41;;;;;;;6.00;1.20;;;;;;;18.54;74.22;100500.84;5050296;28;20481;-62
2022/09/10 09:17:18;;;;;;;4.50;0.80;;;;;;;18.63;74.17;100495.50;5031251;28;20136;-63
2022/09/10 09:20:04;;;;;;;6.72;1.20;;;;;;;18.80;72.78;100498.41;5052774;28;20059;-62
2022/09/10 09:22:41;;;;;;;4.32;1.05;;;;;;;18.83;72.54;100496.31;5049709;28;21098;-61
2022/09/10 09:25:37;;;;;;;5.18;1.58;;;;;;;18.92;73.25;100500.75;5050893;28;20065;-62
2022/09/10 09:28:24;;;;;;;4.55;1.25;;;;;;;19.01;73.32;100503.53;5037559;28;20170;-59
2022/09/10 09:30:52;;;;;;;5.88;1.23;;;;;;;19.06;69.51;100496.75;5034978;28;20536;-62
2022/09/10 09:33:21;;;;;;;5.10;1.05;;;;;;;19.04;69.71;100498.72;5042909;28;20045;-61
2022/09/10 09:35:52;;;;;;;4.68;1.25;;;;;;;19.09;69.47;100495.59;5038984;28;20616;-62
2022/09/10 09:38:22;;;;;;;3.45;1.38;;;;;;;19.14;68.92;100502.19;5025624;28;20056;-63
2022/09/10 09:40:57;;;;;;;3.08;1.20;;;;;;;19.23;69.29;100500.47;5020433;28;20563;-62
2022/09/10 09:43:52;;;;;;;3.90;1.30;;;;;;;19.21;69.05;100497.09;5039277;28;20037;-61
2022/09/10 09:46:20;;;;;;;3.75;1.27;;;;;;;19.33;68.99;100492.41;5054158;28;20049;-63
2022/09/10 09:48:52;;;;;;;3.67;1.25;;;;;;;19.44;68.82;100501.03;5041216;28;20056;-61
2022/09/10 09:51:19;;;;;;;2.88;0.90;;;;;;;19.57;68.43;100502.50;5035661;28;20055;-63
2022/09/10 09:53:48;;;;;;;3.08;0.93;;;;;;;19.68;66.24;100502.31;5039939;28;20393;-64
2022/09/10 09:56:42;;;;;;;4.15;1.13;;;;;;;19.65;66.49;100489.25;5035707;28;20049;-63
2022/09/10 09:59:23;;;;;;;4.10;1.13;;;;;;;19.75;66.21;100499.84;5051310;28;20053;-63
2022/09/10 10:01:50;;;;;;;7.47;1.38;;;;;;;19.61;65.58;100499.41;5054848;28;20087;-62
2022/09/10 10:04:29;;;;;;;4.72;1.55;;;;;;;19.59;66.33;100497.84;5027636;28;20273;-62
2022/09/10 10:06:58;;;;;;;2.47;1.00;;;;;;;19.56;66.50;100495.47;5051431;28;20505;-63
2022/09/10 10:09:32;;;;;;;2.65;0.80;;;;;;;19.59;67.11;100493.34;5024754;28;20132;-62
2022/09/10 10:12:04;;;;;;;3.53;1.50;;;;;;;19.61;66.00;100491.38;5037287;28;20064;-63
2022/09/10 10:14:35;;;;;;;4.28;1.52;;;;;;;19.63;65.78;100489.41;5048552;28;20044;-64
2022/09/10 10:17:20;;;;;;;4.18;1.10;;;;;;;19.65;65.42;100489.25;5051390;28;20090;-62
2022/09/10 10:20:03;;;;;;;2.15;0.60;;;;;;;19.63;66.11;100486.75;5016390;28;20618;-62
2022/09/10 10:22:31;;;;;;;2.80;1.02;;;;;;;19.68;65.71;100486.28;5057165;28;20212;-63
2022/09/10 10:25:00;;;;;;;2.53;0.90;;;;;;;19.70;65.89;100481.63;5065294;28;20527;-64
2022/09/10 10:27:31;;;;;;;3.90;1.08;;;;;;;19.83;65.80;100470.56;5045783;28;20045;-63
2022/09/10 10:30:15;;;;;;;4.60;2.17;;;;;;;20.00;63.89;100485.72;5033261;28;20048;-64
2022/09/10 10:32:48;;;;;;;2.75;1.20;;;;;;;19.90;64.60;100480.47;5063048;28;20052;-64
2022/09/10 10:35:33;;;;;;;6.07;1.40;;;;;;;19.94;64.26;100475.66;5046897;28;20056;-60
2022/09/10 10:38:26;;;;;;;2.00;0.82;;;;;;;20.07;64.04;100475.25;5059945;28;20045;-63
2022/09/10 10:40:55;;;;;;;3.75;0.95;;;;;;;20.33;64.04;100467.25;5053219;28;20516;-63
2022/09/10 10:43:41;;;;;;;4.22;0.95;;;;;;;20.36;62.25;100470.47;5031511;28;20071;-63
2022/09/10 10:46:19;;;;;;;;;;;;;;;20.40;63.08;100477.16;5049608;28;20055;-63
2022/09/10 10:48:46;;;;;;;4.40;1.38;;;;;;;20.40;61.92;100477.16;5042749;28;19924;-63
2022/09/10 10:51:28;;;;;;;6.15;1.83;;;;;;;20.35;62.17;100478.63;5043098;28;20126;-63
2022/09/10 10:54:19;;;;;;;2.25;0.90;;;;;;;20.40;62.73;100473.66;5030387;28;20041;-64
2022/09/10 10:56:58;;;;;;;2.67;1.05;;;;;;;20.42;61.91;100472.50;5043474;28;20045;-60
2022/09/10 10:59:52;;;;;;;2.65;1.00;;;;;;;20.58;62.94;100474.47;5047451;28;20059;-64
2022/09/10 11:02:25;;;;;;;2.90;0.70;;;;;;;20.64;62.51;100473.00;5030101;28;20071;-64
2022/09/10 11:04:53;;;;;;;5.05;1.13;;;;;;;20.37;61.23;100466.78;5078796;22;20037;-60
2022/09/10 11:07:26;;;;;;;1.92;0.88;;;;;;;20.28;62.15;100472.25;5044538;28;20062;-61
2022/09/10 11:09:58;;;;;;;3.05;0.90;;;;;;;20.26;62.66;100474.22;5049088;28;20059;-60
2022/09/10 11:12:30;;;;;;;5.50;0.90;;;;;;;20.26;61.76;100472.38;5073404;28;20062;-60
2022/09/10 11:15:18;;;;;;;4.13;0.88;;;;;;;20.30;62.69;100471.06;5019657;28;20042;-60
2022/09/10 11:17:53;;;;;;;1.95;0.70;;;;;;;20.33;62.26;100464.56;5035957;28;20618;-60
2022/09/10 11:20:26;;;;;;;4.75;1.30;;;;;;;20.39;62.39;100470.13;5021722;28;20053;-60
2022/09/10 11:23:01;;;;;;;2.55;0.98;;;;;;;20.54;62.32;100481.13;5047090;28;20172;-60
2022/09/10 11:25:38;;;;;;;2.40;0.73;;;;;;;20.81;60.91;100480.09;5043246;28;20056;-60
2022/09/10 11:28:15;;;;;;;0.80;0.70;;;;;;;20.82;60.38;100468.38;5025501;28;20059;-60
2022/09/10 11:30:47;;;;;;;2.75;0.70;;;;;;;20.83;60.66;100466.56;5066407;28;20516;-60
2022/09/10 11:33:30;;;;;;;2.08;1.00;;;;;;;21.08;60.62;100470.19;5043773;28;20044;-60
2022/09/10 11:36:29;;;;;;;4.28;0.63;;;;;;;21.22;58.50;100462.34;5048283;28;20052;-60
2022/09/10 11:39:17;;;;;;;3.25;0.70;;;;;;;21.38;58.60;100461.56;5064929;28;20048;-60
2022/09/10 11:41:46;;;;;;;4.25;0.80;;;;;;;21.67;59.18;100468.31;5058330;28;20651;-60
2022/09/10 11:44:23;;;;;;;1.42;0.70;;;;;;;21.87;58.70;100476.88;5059129;28;20045;-60
2022/09/10 11:47:12;;;;;;;5.75;1.00;;;;;;;21.70;56.68;100466.16;5040813;28;20056;-59